Terminal Aerodrome Forecast
Issued by NWS

Home | Current Version | Previous Version | Text Only | Print | Product List | Glossary On
Versions: 1 2 3 4 5 6 7 8 9 10 11 12 13 14 15 16 17 18
000
FTUS45 KBOI 270127 AAA
TAFMYL
TAF AMD
KMYL 270127Z 2701/2724 17006KT 6SM -SHRASN BR SCT015 BKN025 OVC035
     FM270300 14006KT 5SM -SHRASN BR BKN010 OVC020
     FM270800 13005KT 1SM -SN BR BKN008 OVC020
     FM271500 VRB04KT 5SM -SN BR BKN015 OVC040
     FM272100 30008KT P6SM OVC025=

USA.gov is the U.S. government's official web portal to all federal, state and local government web resources and services.